createdAt,value
2018-03-20T00:01:33.678Z,34.40
2018-03-20T00:04:01.943Z,34.80
2018-03-20T00:06:29.409Z,34.70
2018-03-20T00:08:56.901Z,34.30
2018-03-20T00:11:24.368Z,34.50
2018-03-20T00:13:51.863Z,34.70
2018-03-20T00:16:20.161Z,34.80
2018-03-20T00:18:48.461Z,34.50
2018-03-20T00:21:16.034Z,34.40
2018-03-20T00:23:43.517Z,34.40
2018-03-20T00:26:10.986Z,34.70
2018-03-20T00:28:38.466Z,34.50
2018-03-20T00:31:05.941Z,34.50
2018-03-20T00:33:33.440Z,34.70
2018-03-20T00:36:00.917Z,34.60
2018-03-20T00:38:28.394Z,34.70
2018-03-20T00:40:55.866Z,34.40
2018-03-20T00:43:23.353Z,34.20
2018-03-20T00:45:51.608Z,34.50
2018-03-20T00:48:19.206Z,34.30
2018-03-20T00:50:47.446Z,35.00
2018-03-20T00:53:14.938Z,34.10
2018-03-20T00:55:42.402Z,34.10
2018-03-20T00:58:09.878Z,34.30
2018-03-20T01:00:37.355Z,34.30
2018-03-20T01:03:04.882Z,34.10
2018-03-20T01:05:32.345Z,34.10
2018-03-20T01:07:59.809Z,34.20
2018-03-20T01:10:27.387Z,33.90
2018-03-20T01:12:54.867Z,33.80
2018-03-20T01:15:22.350Z,33.90
2018-03-20T01:17:49.834Z,33.90
2018-03-20T01:20:17.329Z,33.90
2018-03-20T01:22:44.802Z,34.10
2018-03-20T01:25:12.285Z,34.20
2018-03-20T01:27:39.780Z,33.80
2018-03-20T01:30:08.046Z,34.30
2018-03-20T01:32:35.518Z,34.10
2018-03-20T01:35:03.071Z,33.90
2018-03-20T01:37:30.555Z,34.00
2018-03-20T01:39:58.056Z,34.40
2018-03-20T01:42:25.600Z,33.90
2018-03-20T01:44:53.158Z,33.80
2018-03-20T01:47:20.619Z,33.90
2018-03-20T01:49:48.126Z,33.70
2018-03-20T01:52:16.371Z,34.00
2018-03-20T01:54:43.852Z,33.90
2018-03-20T01:57:11.309Z,33.60
2018-03-20T01:59:38.896Z,33.80
2018-03-20T02:02:06.424Z,33.60
2018-03-20T02:04:33.927Z,33.50
2018-03-20T02:07:01.415Z,33.50
2018-03-20T02:09:28.994Z,34.00
2018-03-20T02:11:56.448Z,33.70
2018-03-20T02:14:23.990Z,33.70
2018-03-20T02:16:51.505Z,34.20
2018-03-20T02:19:18.982Z,33.90
2018-03-20T02:21:46.556Z,34.00
2018-03-20T02:24:14.171Z,33.70
2018-03-20T02:26:41.652Z,34.10
2018-03-20T02:29:09.160Z,33.90
2018-03-20T02:31:36.641Z,34.10
2018-03-20T02:34:04.106Z,33.90
2018-03-20T02:36:31.582Z,34.30
2018-03-20T02:38:59.091Z,34.30
2018-03-20T02:41:26.644Z,34.00
2018-03-20T02:43:54.946Z,34.70
2018-03-20T02:46:23.244Z,34.80
2018-03-20T02:48:50.716Z,34.70
2018-03-20T02:51:18.193Z,34.50
2018-03-20T02:53:45.758Z,34.50
2018-03-20T02:56:13.244Z,34.60
2018-03-20T02:58:40.792Z,34.80
2018-03-20T03:01:09.123Z,35.00
2018-03-20T03:03:36.592Z,35.00
2018-03-20T03:06:04.062Z,34.90
2018-03-20T03:08:31.525Z,34.80
2018-03-20T03:10:59.014Z,34.60
2018-03-20T03:13:26.483Z,34.70
2018-03-20T03:15:53.956Z,34.70
2018-03-20T03:18:21.416Z,34.60
2018-03-20T03:20:48.902Z,34.70
2018-03-20T03:23:16.356Z,34.70
2018-03-20T03:25:43.845Z,34.60
2018-03-20T03:28:11.297Z,34.80
2018-03-20T03:30:38.802Z,35.10
2018-03-20T03:33:06.414Z,35.00
2018-03-20T03:35:34.643Z,35.50
2018-03-20T03:38:02.116Z,35.50
2018-03-20T03:40:29.596Z,35.20
2018-03-20T03:42:57.106Z,35.30
2018-03-20T03:45:24.560Z,35.50
2018-03-20T03:47:52.798Z,36.70
2018-03-20T03:50:20.345Z,35.60
2018-03-20T03:52:48.638Z,35.60
2018-03-20T03:55:16.110Z,35.50
2018-03-20T03:57:43.599Z,35.50
2018-03-20T04:00:11.055Z,35.70
2018-03-20T04:02:38.534Z,35.50
2018-03-20T04:05:06.053Z,35.50
2018-03-20T04:07:33.615Z,36.00
2018-03-20T04:10:01.072Z,35.90
2018-03-20T04:12:28.626Z,36.40
2018-03-20T04:14:56.089Z,35.70
2018-03-20T04:17:23.606Z,35.30
2018-03-20T04:19:51.110Z,35.30
2018-03-20T04:22:19.365Z,35.90
2018-03-20T04:24:46.833Z,35.40
2018-03-20T04:27:14.297Z,36.00
2018-03-20T04:29:41.883Z,35.60
2018-03-20T04:32:09.338Z,35.80
2018-03-20T04:34:36.811Z,35.90
2018-03-20T04:37:04.436Z,35.60
2018-03-20T04:39:31.921Z,35.70
2018-03-20T04:41:59.432Z,36.00
2018-03-20T04:44:26.908Z,35.70
2018-03-20T04:46:54.440Z,35.60
2018-03-20T04:49:21.916Z,35.50
2018-03-20T04:51:49.392Z,35.70
2018-03-20T04:54:16.867Z,35.80
2018-03-20T04:56:44.333Z,35.60
2018-03-20T04:59:11.937Z,35.60
2018-03-20T05:01:39.480Z,35.90
2018-03-20T05:04:06.972Z,35.50
2018-03-20T05:06:34.429Z,35.50
2018-03-20T05:09:01.910Z,35.90
2018-03-20T05:11:29.367Z,35.70
2018-03-20T05:13:56.846Z,35.60
2018-03-20T05:16:24.379Z,35.90
2018-03-20T05:18:51.843Z,36.00
2018-03-20T05:21:35.968Z,35.80
2018-03-20T05:24:05.561Z,36.00
2018-03-20T05:26:33.037Z,35.50
2018-03-20T05:29:00.510Z,35.50
2018-03-20T05:31:27.997Z,35.60
2018-03-20T05:33:55.502Z,35.90
2018-03-20T05:36:23.738Z,36.10
2018-03-20T05:38:51.195Z,35.70
2018-03-20T05:41:18.673Z,36.00
2018-03-20T05:43:46.133Z,35.80
2018-03-20T05:46:13.595Z,35.80
2018-03-20T05:51:47.213Z,36.10
2018-03-20T05:54:14.664Z,36.30
2018-03-20T05:56:42.229Z,36.20
2018-03-20T05:59:09.707Z,36.30
2018-03-20T06:01:37.193Z,36.50
2018-03-20T06:04:04.660Z,36.40
2018-03-20T06:06:32.142Z,36.90
2018-03-20T06:09:00.374Z,36.70
2018-03-20T06:11:27.886Z,36.80
2018-03-20T06:13:55.341Z,37.20
2018-03-20T06:16:22.820Z,37.30
2018-03-20T06:18:50.277Z,37.20
2018-03-20T06:21:17.733Z,36.80
2018-03-20T06:23:45.254Z,37.20
2018-03-20T06:26:13.480Z,38.30
2018-03-20T06:28:41.004Z,37.50
2018-03-20T06:31:09.269Z,37.70
2018-03-20T06:33:36.857Z,37.20
2018-03-20T06:36:04.428Z,37.10
2018-03-20T06:38:31.902Z,37.50
2018-03-20T06:40:59.353Z,37.20
2018-03-20T06:43:26.829Z,37.30
2018-03-20T06:45:54.313Z,37.80
2018-03-20T06:48:21.793Z,37.70
2018-03-20T06:50:49.246Z,38.00
2018-03-20T06:53:16.716Z,37.50
2018-03-20T06:55:44.208Z,37.80
2018-03-20T06:58:12.484Z,38.00
2018-03-20T07:00:39.941Z,37.60
2018-03-20T07:03:07.416Z,36.70
2018-03-20T07:05:34.873Z,36.70
2018-03-20T07:08:02.350Z,36.50
2018-03-20T07:10:30.588Z,36.50
2018-03-20T07:12:58.857Z,36.20
2018-03-20T07:15:27.089Z,35.90
2018-03-20T07:17:54.556Z,35.90
2018-03-20T07:20:22.015Z,35.80
2018-03-20T07:22:49.534Z,35.50
2018-03-20T07:25:17.006Z,33.60
2018-03-20T07:27:44.480Z,33.40
2018-03-20T07:30:11.959Z,33.20
2018-03-20T07:32:39.409Z,32.60
2018-03-20T07:35:06.919Z,32.00
2018-03-20T07:37:35.155Z,30.90
2018-03-20T07:40:02.633Z,30.80
2018-03-20T07:42:30.109Z,30.60
2018-03-20T07:44:57.574Z,30.70
2018-03-20T07:47:25.070Z,31.10
2018-03-20T07:49:52.541Z,30.90
2018-03-20T07:52:20.026Z,30.60
2018-03-20T07:54:47.510Z,30.00
2018-03-20T07:57:15.732Z,30.10
2018-03-20T07:59:43.198Z,30.00
2018-03-20T08:02:10.672Z,30.10
2018-03-20T08:04:38.142Z,30.00
2018-03-20T08:07:05.619Z,29.70
2018-03-20T08:09:33.914Z,29.70
2018-03-20T08:12:01.364Z,29.60
2018-03-20T08:14:28.886Z,29.70
2018-03-20T08:16:56.378Z,29.50
2018-03-20T08:19:24.677Z,29.50
2018-03-20T08:21:52.110Z,29.50
2018-03-20T08:24:19.570Z,29.20
2018-03-20T08:26:47.070Z,29.40
2018-03-20T08:29:15.300Z,29.50
2018-03-20T08:31:42.868Z,29.30
2018-03-20T08:34:10.326Z,28.60
2018-03-20T08:36:38.617Z,28.80
2018-03-20T08:39:06.085Z,28.80
2018-03-20T08:41:34.380Z,27.90
2018-03-20T08:44:01.832Z,27.90
2018-03-20T08:46:30.087Z,28.20
2018-03-20T08:48:57.567Z,28.20
2018-03-20T08:51:25.062Z,28.40
2018-03-20T08:53:53.299Z,28.30
2018-03-20T08:56:20.840Z,28.30
2018-03-20T08:58:49.120Z,28.80
2018-03-20T09:01:17.362Z,29.00
2018-03-20T09:03:45.654Z,29.20
2018-03-20T09:06:13.125Z,29.30
2018-03-20T09:08:40.581Z,30.20
2018-03-20T09:11:08.056Z,30.40
2018-03-20T09:13:36.277Z,32.30
2018-03-20T09:16:03.734Z,31.60
2018-03-20T09:18:31.198Z,31.90
2018-03-20T09:20:58.680Z,31.90
2018-03-20T09:23:26.211Z,33.10
2018-03-20T09:25:53.661Z,33.10
2018-03-20T09:28:21.128Z,33.90
2018-03-20T09:30:48.585Z,35.90
2018-03-20T09:33:16.897Z,35.50
2018-03-20T09:35:44.361Z,35.50
2018-03-20T09:38:11.855Z,36.10
2018-03-20T09:40:39.408Z,36.20
2018-03-20T09:43:06.885Z,36.20
2018-03-20T09:45:35.120Z,37.20
2018-03-20T09:48:02.634Z,37.20
2018-03-20T09:50:30.933Z,36.90
2018-03-20T09:52:58.493Z,37.00
2018-03-20T09:55:26.781Z,36.90
2018-03-20T09:57:55.032Z,37.10
2018-03-20T10:00:22.505Z,37.10
2018-03-20T10:02:49.989Z,37.60
2018-03-20T10:05:17.461Z,37.90
2018-03-20T10:07:44.993Z,38.10
2018-03-20T10:10:13.277Z,38.00
2018-03-20T10:12:40.754Z,38.10
2018-03-20T10:15:08.228Z,38.30
2018-03-20T10:17:35.735Z,38.10
2018-03-20T10:20:03.226Z,38.10
2018-03-20T10:22:31.528Z,38.00
2018-03-20T10:24:59.045Z,38.10
2018-03-20T10:27:26.512Z,38.20
2018-03-20T10:29:54.030Z,38.10
2018-03-20T10:32:22.251Z,37.60
2018-03-20T10:34:49.744Z,37.60
2018-03-20T10:37:17.210Z,36.90
2018-03-20T10:39:44.717Z,36.30
2018-03-20T10:42:12.176Z,35.80
2018-03-20T10:44:39.649Z,35.40
2018-03-20T10:47:07.890Z,35.00
2018-03-20T10:49:35.360Z,34.90
2018-03-20T10:52:02.821Z,34.90
2018-03-20T10:54:30.452Z,35.00
2018-03-20T10:56:57.917Z,35.10
2018-03-20T10:59:25.403Z,35.00
2018-03-20T11:01:53.822Z,34.70
2018-03-20T11:04:21.296Z,34.60
2018-03-20T11:06:48.776Z,34.60
2018-03-20T11:09:16.245Z,34.60
2018-03-20T11:11:43.702Z,34.50
2018-03-20T11:14:11.179Z,34.40
2018-03-20T11:16:38.633Z,34.00
2018-03-20T11:19:06.913Z,34.10
2018-03-20T11:21:35.136Z,34.70
2018-03-20T11:24:02.619Z,34.10
2018-03-20T11:26:30.139Z,34.10
2018-03-20T11:28:57.588Z,34.10
2018-03-20T11:31:25.889Z,34.10
2018-03-20T11:33:53.345Z,34.10
2018-03-20T11:36:20.927Z,34.30
2018-03-20T11:38:48.382Z,34.50
2018-03-20T11:41:15.855Z,34.70
2018-03-20T11:43:43.347Z,34.40
2018-03-20T11:46:10.831Z,33.20
2018-03-20T11:48:39.058Z,32.80
2018-03-20T11:51:06.549Z,32.90
2018-03-20T11:53:34.018Z,33.20
2018-03-20T11:56:01.505Z,33.80
2018-03-20T11:58:28.975Z,33.50
2018-03-20T12:00:56.475Z,33.90
2018-03-20T12:03:24.745Z,34.10
2018-03-20T12:05:52.257Z,34.10
2018-03-20T12:08:31.608Z,33.70
2018-03-20T12:10:59.071Z,33.70
2018-03-20T12:13:27.352Z,33.50
2018-03-20T12:15:55.573Z,32.90
2018-03-20T12:18:23.048Z,32.80
2018-03-20T12:20:50.532Z,32.10
2018-03-20T12:23:18.005Z,32.10
2018-03-20T12:25:45.466Z,30.60
2018-03-20T12:28:12.955Z,31.00
2018-03-20T12:30:40.431Z,30.80
2018-03-20T12:33:07.916Z,29.60
2018-03-20T12:35:35.383Z,29.80
2018-03-20T12:38:03.671Z,29.70
2018-03-20T12:40:31.154Z,29.70
2018-03-20T12:42:58.620Z,29.10
2018-03-20T12:45:26.101Z,29.10
2018-03-20T12:47:54.340Z,29.40
2018-03-20T12:50:21.818Z,29.40
2018-03-20T12:52:49.289Z,29.60
2018-03-20T12:55:16.769Z,30.00
2018-03-20T12:57:44.256Z,30.10
2018-03-20T13:00:12.534Z,29.80
2018-03-20T13:02:39.997Z,29.80
2018-03-20T13:05:07.478Z,29.70
2018-03-20T13:07:34.936Z,29.40
2018-03-20T13:10:02.570Z,29.40
2018-03-20T13:12:30.080Z,29.00
2018-03-20T13:14:57.550Z,28.90
2018-03-20T13:17:25.033Z,29.00
2018-03-20T13:19:52.502Z,29.10
2018-03-20T13:22:19.982Z,29.40
2018-03-20T13:24:47.490Z,29.50
2018-03-20T13:27:15.733Z,29.80
2018-03-20T13:29:43.198Z,29.80
2018-03-20T13:32:10.726Z,29.90
2018-03-20T13:34:38.179Z,30.00
2018-03-20T13:37:06.432Z,30.20
2018-03-20T13:39:33.898Z,30.20
2018-03-20T13:42:01.417Z,30.40
2018-03-20T13:44:28.876Z,30.80
2018-03-20T13:46:56.323Z,31.40
2018-03-20T13:49:23.814Z,31.80
2018-03-20T13:51:51.285Z,33.20
2018-03-20T13:54:19.582Z,34.40
2018-03-20T13:56:47.812Z,35.20
2018-03-20T13:59:15.289Z,34.50
2018-03-20T14:01:42.744Z,34.40
2018-03-20T14:04:10.231Z,34.50
2018-03-20T14:06:37.699Z,34.80
2018-03-20T14:09:05.193Z,34.80
2018-03-20T14:11:32.665Z,35.00
2018-03-20T14:14:00.137Z,35.10
2018-03-20T14:16:27.615Z,35.80
2018-03-20T14:18:55.104Z,35.80
2018-03-20T14:21:23.325Z,36.30
2018-03-20T14:23:50.866Z,36.20
2018-03-20T14:26:19.119Z,36.40
2018-03-20T14:28:46.610Z,36.40
2018-03-20T14:31:14.115Z,36.40
2018-03-20T14:33:42.317Z,36.70
2018-03-20T14:36:09.805Z,36.70
2018-03-20T14:38:37.276Z,36.60
2018-03-20T14:41:04.760Z,37.00
2018-03-20T14:43:32.213Z,37.10
2018-03-20T14:46:00.370Z,37.10
2018-03-20T14:48:27.845Z,37.40
2018-03-20T14:50:55.322Z,37.60
2018-03-20T14:53:22.790Z,37.50
2018-03-20T14:55:50.278Z,37.60
2018-03-20T14:58:17.752Z,37.90
2018-03-20T15:00:45.298Z,38.20
2018-03-20T15:03:12.779Z,38.90
2018-03-20T15:05:40.238Z,39.40
2018-03-20T15:08:07.724Z,39.30
2018-03-20T15:10:35.254Z,38.90
2018-03-20T15:13:02.729Z,38.50
2018-03-20T15:15:30.985Z,38.30
2018-03-20T15:17:58.516Z,38.20
2018-03-20T15:20:25.978Z,38.10
2018-03-20T15:22:54.241Z,37.90
2018-03-20T15:25:21.746Z,37.80
2018-03-20T15:27:49.271Z,38.10
2018-03-20T15:30:16.743Z,38.00
2018-03-20T15:32:44.223Z,37.90
2018-03-20T15:35:11.689Z,37.70
2018-03-20T15:37:39.205Z,37.80
2018-03-20T15:40:06.696Z,37.90
2018-03-20T15:42:34.162Z,37.90
2018-03-20T15:45:01.644Z,38.20
2018-03-20T15:47:29.133Z,38.00
2018-03-20T15:49:57.425Z,37.90
2018-03-20T15:52:24.903Z,37.80
2018-03-20T15:54:52.402Z,38.10
2018-03-20T15:57:20.641Z,38.30
2018-03-20T15:59:48.113Z,38.30
2018-03-20T16:02:15.569Z,38.00
2018-03-20T16:04:43.058Z,38.00
2018-03-20T16:07:10.520Z,38.50
2018-03-20T16:09:38.060Z,38.20
2018-03-20T16:12:05.530Z,38.20
2018-03-20T16:14:33.021Z,38.20
2018-03-20T16:17:00.489Z,38.20
2018-03-20T16:19:27.951Z,38.40
2018-03-20T16:21:55.448Z,38.50
2018-03-20T16:24:22.945Z,38.50
2018-03-20T16:26:50.413Z,39.50
2018-03-20T16:29:17.991Z,38.70
2018-03-20T16:31:46.229Z,39.80
2018-03-20T16:34:13.767Z,39.80
2018-03-20T16:36:41.270Z,39.60
2018-03-20T16:39:08.731Z,38.80
2018-03-20T16:41:36.273Z,39.60
2018-03-20T16:44:03.745Z,39.40
2018-03-20T16:46:32.108Z,39.50
2018-03-20T16:48:59.588Z,39.50
2018-03-20T16:51:27.925Z,39.50
2018-03-20T16:53:55.386Z,39.50
2018-03-20T16:56:22.928Z,39.30
2018-03-20T16:58:50.411Z,39.30
2018-03-20T17:01:18.698Z,39.40
2018-03-20T17:03:46.164Z,39.50
2018-03-20T17:06:13.637Z,39.40
2018-03-20T17:08:41.196Z,39.50
2018-03-20T17:11:08.689Z,39.50
2018-03-20T17:13:36.167Z,39.60
2018-03-20T17:16:04.461Z,39.60
2018-03-20T17:18:32.725Z,39.80
2018-03-20T17:21:00.165Z,39.80
2018-03-20T17:23:27.628Z,39.80
2018-03-20T17:25:55.089Z,39.70
2018-03-20T17:28:22.636Z,39.90
2018-03-20T17:30:50.042Z,39.80
2018-03-20T17:33:17.509Z,40.00
2018-03-20T17:35:45.034Z,40.10
2018-03-20T17:38:12.544Z,40.10
2018-03-20T17:40:40.000Z,40.20
2018-03-20T17:43:07.513Z,40.10
2018-03-20T17:45:34.974Z,40.00
2018-03-20T17:48:02.454Z,39.90
2018-03-20T17:50:29.935Z,40.00
2018-03-20T17:52:57.404Z,40.00
2018-03-20T17:55:24.863Z,39.90
2018-03-20T17:57:52.356Z,40.00
2018-03-20T18:00:19.826Z,39.90
2018-03-20T18:02:47.277Z,40.50
2018-03-20T18:05:14.770Z,40.10
2018-03-20T18:07:42.225Z,40.20
2018-03-20T18:10:09.719Z,40.10
2018-03-20T18:12:37.201Z,40.30
2018-03-20T18:15:04.740Z,40.30
2018-03-20T18:17:32.365Z,40.10
2018-03-20T18:20:00.612Z,40.20
2018-03-20T18:22:28.066Z,40.20
2018-03-20T18:24:55.602Z,40.80
2018-03-20T18:27:23.079Z,40.20
2018-03-20T18:29:50.545Z,40.30
2018-03-20T18:32:18.032Z,40.20
2018-03-20T18:34:45.542Z,40.40
2018-03-20T18:37:13.013Z,40.30
2018-03-20T18:39:40.529Z,40.30
2018-03-20T18:42:08.063Z,40.40
2018-03-20T18:44:35.751Z,40.40
2018-03-20T18:47:03.254Z,40.40
2018-03-20T18:49:30.710Z,40.50
2018-03-20T18:51:58.294Z,40.40
2018-03-20T18:54:25.862Z,40.40
2018-03-20T18:56:53.341Z,40.50
2018-03-20T18:59:20.806Z,40.30
2018-03-20T19:01:48.293Z,40.50
2018-03-20T19:04:15.754Z,40.40
2018-03-20T19:06:43.257Z,40.40
2018-03-20T19:09:10.755Z,40.50
2018-03-20T19:11:38.255Z,40.40
2018-03-20T19:14:05.721Z,40.50
2018-03-20T19:16:33.960Z,40.60
2018-03-20T19:19:01.430Z,40.50
2018-03-20T19:21:28.897Z,40.50
2018-03-20T19:23:56.430Z,40.70
2018-03-20T19:26:24.003Z,40.60
2018-03-20T19:28:52.245Z,40.80
2018-03-20T19:31:19.713Z,40.70
2018-03-20T19:33:47.211Z,40.80
2018-03-20T19:36:15.460Z,41.60
2018-03-20T19:38:43.745Z,41.50
2018-03-20T19:41:11.229Z,41.10
2018-03-20T19:43:38.862Z,41.20
2018-03-20T19:46:06.379Z,41.20
2018-03-20T19:48:33.862Z,41.30
2018-03-20T19:51:01.352Z,41.50
2018-03-20T19:53:28.895Z,41.70
2018-03-20T19:55:56.376Z,42.00
2018-03-20T19:58:23.864Z,42.10
2018-03-20T20:00:51.325Z,42.20
2018-03-20T20:03:20.238Z,43.20
2018-03-20T20:05:47.701Z,42.50
2018-03-20T20:08:16.883Z,42.50
2018-03-20T20:10:45.242Z,42.70
2018-03-20T20:13:12.709Z,42.70
2018-03-20T20:15:41.391Z,42.70
2018-03-20T20:18:09.661Z,43.10
2018-03-20T20:20:37.336Z,43.10
2018-03-20T20:23:04.904Z,43.30
2018-03-20T20:25:32.413Z,43.40
2018-03-20T20:27:59.903Z,43.40
2018-03-20T20:30:27.374Z,43.20
2018-03-20T20:32:54.833Z,43.20
2018-03-20T20:35:22.388Z,43.20
2018-03-20T20:37:49.858Z,43.40
2018-03-20T20:40:17.444Z,43.70
2018-03-20T20:42:44.909Z,43.70
2018-03-20T20:45:13.172Z,43.90
2018-03-20T20:47:40.712Z,43.90
2018-03-20T20:50:08.187Z,43.90
2018-03-20T20:52:35.689Z,43.80
2018-03-20T20:55:03.146Z,44.00
2018-03-20T20:57:30.668Z,44.00
2018-03-20T20:59:58.235Z,43.90
2018-03-20T21:02:25.721Z,44.20
2018-03-20T21:04:53.181Z,44.30
2018-03-20T21:07:20.710Z,44.20
2018-03-20T21:09:48.164Z,44.20
2018-03-20T21:12:15.670Z,44.30
2018-03-20T21:14:43.982Z,44.70
2018-03-20T21:17:11.456Z,44.30
2018-03-20T21:19:38.908Z,44.30
2018-03-20T21:22:07.273Z,44.50
2018-03-20T21:24:34.763Z,44.50
2018-03-20T21:27:03.039Z,44.50
2018-03-20T21:29:30.551Z,44.40
2018-03-20T21:31:58.324Z,44.60
2018-03-20T21:34:25.877Z,44.70
2018-03-20T21:36:54.148Z,44.90
2018-03-20T21:39:21.672Z,44.80
2018-03-20T21:41:49.136Z,44.60
2018-03-20T21:44:16.610Z,44.90
2018-03-20T21:46:44.092Z,45.00
2018-03-20T21:49:11.595Z,45.00
2018-03-20T21:51:39.077Z,45.10
2018-03-20T21:54:06.619Z,45.20
2018-03-20T21:56:34.160Z,45.50
2018-03-20T21:59:01.688Z,45.40
2018-03-20T22:01:29.300Z,45.40
2018-03-20T22:03:56.801Z,45.80
2018-03-20T22:06:24.257Z,45.30
2018-03-20T22:08:51.724Z,45.20
2018-03-20T22:11:19.223Z,45.10
2018-03-20T22:13:46.697Z,45.30
2018-03-20T22:16:14.182Z,45.20
2018-03-20T22:18:41.678Z,45.30
2018-03-20T22:21:09.935Z,45.40
2018-03-20T22:23:37.397Z,45.50
2018-03-20T22:26:04.902Z,45.70
2018-03-20T22:28:32.369Z,45.80
2018-03-20T22:31:00.620Z,46.90
2018-03-20T22:33:28.110Z,45.90
2018-03-20T22:35:55.629Z,45.90
2018-03-20T22:38:23.099Z,46.00
2018-03-20T22:40:50.596Z,45.90
2018-03-20T22:43:18.066Z,46.70
2018-03-20T22:45:46.344Z,46.90
2018-03-20T22:48:13.839Z,46.60
2018-03-20T22:50:41.330Z,46.50
2018-03-20T22:53:08.805Z,46.30
2018-03-20T22:55:36.278Z,46.20
2018-03-20T22:58:03.753Z,46.10
2018-03-20T23:00:32.149Z,46.60
2018-03-20T23:02:59.631Z,46.40
2018-03-20T23:05:28.615Z,47.40
2018-03-20T23:07:56.138Z,47.10
2018-03-20T23:10:23.802Z,47.20
2018-03-20T23:12:51.293Z,47.50
2018-03-20T23:15:18.848Z,47.60
2018-03-20T23:17:46.349Z,47.70
2018-03-20T23:20:13.813Z,47.60
2018-03-20T23:22:41.368Z,47.90
2018-03-20T23:25:08.936Z,47.50
2018-03-20T23:27:36.401Z,48.00
2018-03-20T23:30:03.893Z,47.40
2018-03-20T23:32:31.369Z,47.70
2018-03-20T23:34:58.850Z,47.40
2018-03-20T23:37:26.330Z,47.50
2018-03-20T23:39:53.825Z,47.50
2018-03-20T23:42:21.290Z,47.30
2018-03-20T23:44:48.769Z,47.00
2018-03-20T23:47:16.244Z,47.10
2018-03-20T23:49:43.742Z,47.10
2018-03-20T23:52:11.224Z,48.00
2018-03-20T23:54:38.736Z,47.00
2018-03-20T23:57:06.204Z,46.90
2018-03-20T23:59:33.670Z,47.10
